Taiseimaru — JL6483 — position and weather

sailwx.info

Track history (hours):
 
Tides and Currents Weather Stations Pressure Air Temp Water Temp Dewpoint Dewpoint Depression Visibility Wind Speed Wind Dir Waves Ship Positions

Taiseimaru

Last reported at 2016-Aug-25 04:29 UTC. Time now 2016-Aug-25 09:41 UTC.
Position N 34°04' E 135°00'.

Length 84 m; draft 4.7 m.

Type: Cargo ship. MMSI: 431500568.

Date/timePositionNaut miles runAvg speedWind from/ knotsBaromVisibWave heightAir tempDewpointWater temp
2016-Aug-25 04:29N 34°04' E 135°00'1010.8
2016-Aug-25 03:33N 34°12' E 135°06'2 1.8
2016-Aug-25 02:32N 34°12' E 135°08'1 1.4
2016-Aug-25 01:32N 34°14' E 135°08'0 0.0
2016-Aug-25 00:32N 34°14' E 135°08'0 0.0
2016-Aug-24 23:32N 34°14' E 135°08'0 0.0
2016-Aug-24 22:32N 34°14' E 135°08'0 0.0
2016-Aug-24 21:32N 34°14' E 135°08'0 0.0
2016-Aug-24 20:32N 34°14' E 135°08'0 0.0
2016-Aug-24 19:32N 34°14' E 135°08'0 0.0
2016-Aug-24 18:32N 34°14' E 135°08'2 2.1
2016-Aug-24 17:33N 34°15' E 135°06'0 0.0
2016-Aug-24 16:33N 34°15' E 135°06'0 0.0
2016-Aug-24 15:33N 34°15' E 135°06'0 0.0
2016-Aug-24 14:33N 34°15' E 135°06'0 0.0
2016-Aug-24 12:33N 34°15' E 135°06'7 6.8
2016-Aug-24 11:33N 34°09' E 135°02'12 0.5
2016-Aug-23 08:26N 33°58' E 134°55'1112.1
2016-Aug-23 07:33N 34°07' E 135°01'9 8.6
2016-Aug-23 06:33N 34°14' E 135°08'0 0.0
2016-Aug-23 05:33N 34°14' E 135°08'0 0.0
2016-Aug-23 04:33N 34°14' E 135°08'0 0.0
2016-Aug-23 03:33N 34°14' E 135°08'0 0.0
2016-Aug-23 02:33N 34°14' E 135°08'0 0.0
2016-Aug-23 01:33N 34°14' E 135°08'0 0.0
2016-Aug-23 00:34N 34°14' E 135°08'0 0.0
2016-Aug-22 23:33N 34°14' E 135°08'1 0.6
2016-Aug-22 22:33N 34°14' E 135°07'1 1.2
2016-Aug-22 21:32N 34°15' E 135°06'0 0.0
2016-Aug-22 20:29N 34°15' E 135°06'0 0.0
2016-Aug-22 19:32N 34°15' E 135°06'0 0.0
2016-Aug-22 18:32N 34°15' E 135°06'0 0.0
2016-Aug-22 17:29N 34°15' E 135°06'0 0.1
2016-Aug-22 16:32N 34°15' E 135°06'0 0.0
2016-Aug-22 15:26N 34°15' E 135°06'0 0.0
2016-Aug-22 14:23N 34°15' E 135°06'0 0.0
2016-Aug-22 13:29N 34°15' E 135°06'0 0.0
2016-Aug-22 12:32N 34°15' E 135°06'1 1.2
2016-Aug-22 11:33N 34°14' E 135°05'1111.1
2016-Aug-22 10:32N 34°04' E 134°59'1 0.0
2016-Aug-20 08:23N 34°03' E 134°58'1012.2
2016-Aug-20 07:32N 34°12' E 135°04'4 3.5
2016-Aug-20 06:31N 34°14' E 135°08'0 0.0
2016-Aug-20 05:34N 34°14' E 135°08'0 0.0
2016-Aug-20 04:34N 34°14' E 135°08'0 0.0
2016-Aug-20 03:33N 34°14' E 135°08'0 0.0
2016-Aug-20 02:33N 34°14' E 135°08'0 0.0
2016-Aug-20 01:33N 34°14' E 135°08'0 0.0
2016-Aug-20 00:30N 34°14' E 135°08'0 0.0
2016-Aug-19 23:33N 34°14' E 135°08'0 0.0
2016-Aug-19 22:33N 34°14' E 135°08'3 3.4
2016-Aug-19 21:33N 34°12' E 135°04'  
2016-Aug-17 14:08N 34°02' E 134°57'711.7
2016-Aug-17 13:33N 34°07' E 135°02'6 5.7
2016-Aug-17 12:32N 34°10' E 135°09'0 0.0
2016-Aug-17 11:32N 34°10' E 135°09'0 0.1
2016-Aug-17 10:32N 34°10' E 135°09'0 0.0
2016-Aug-17 08:26N 34°10' E 135°09'0 0.1
2016-Aug-17 07:29N 34°10' E 135°09'0 0.0
2016-Aug-17 06:32N 34°10' E 135°09'0 0.0
2016-Aug-17 04:23N 34°10' E 135°09'0 0.1
2016-Aug-17 03:20N 34°10' E 135°09'0 0.1
2016-Aug-17 02:32N 34°10' E 135°09'0 0.0
2016-Aug-17 01:32N 34°10' E 135°09'0 0.1
2016-Aug-17 00:32N 34°10' E 135°09'0 0.0
2016-Aug-16 23:08N 34°10' E 135°09'0 0.0
2016-Aug-16 22:32N 34°10' E 135°09'0 0.0
2016-Aug-16 21:32N 34°10' E 135°09'0 0.0
2016-Aug-16 20:29N 34°10' E 135°09'0 0.0
2016-Aug-16 19:32N 34°10' E 135°09'0 0.0
2016-Aug-16 18:32N 34°10' E 135°09'0 0.0
2016-Aug-16 17:32N 34°10' E 135°09'0 0.0
2016-Aug-16 16:32N 34°10' E 135°09'0 0.0
2016-Aug-16 15:26N 34°10' E 135°09'0 0.0
2016-Aug-16 14:29N 34°10' E 135°09'0 0.1
2016-Aug-16 13:32N 34°10' E 135°09'0 0.1
2016-Aug-16 12:32N 34°10' E 135°09'0 0.1
2016-Aug-16 11:32N 34°10' E 135°09'0 0.0
2016-Aug-16 10:26N 34°10' E 135°09'0 0.0
2016-Aug-16 09:29N 34°10' E 135°09'0 0.0
2016-Aug-16 08:31N 34°10' E 135°09'0 0.1
2016-Aug-16 07:31N 34°10' E 135°09'0 0.0
2016-Aug-16 04:31N 34°10' E 135°09'0 0.0
2016-Aug-16 03:28N 34°10' E 135°09'0 0.0
2016-Aug-16 01:31N 34°10' E 135°09'0 0.0
2016-Aug-16 00:25N 34°10' E 135°09'0 0.1
2016-Aug-15 23:25N 34°10' E 135°09'0 0.1
2016-Aug-15 22:31N 34°10' E 135°09'0 0.0
2016-Aug-15 21:31N 34°10' E 135°09'0 0.0
2016-Aug-15 20:31N 34°10' E 135°09'0 0.0
2016-Aug-15 19:31N 34°10' E 135°09'0 0.1
2016-Aug-15 18:31N 34°10' E 135°09'0 0.0
2016-Aug-15 17:31N 34°10' E 135°09'0 0.0
2016-Aug-15 16:31N 34°10' E 135°09'0 0.0
2016-Aug-15 15:31N 34°10' E 135°09'0 0.1
2016-Aug-15 14:31N 34°10' E 135°09'0 0.1
2016-Aug-15 13:31N 34°10' E 135°09'0 0.0
2016-Aug-15 12:19N 34°10' E 135°09'0 0.0
2016-Aug-15 11:25N 34°10' E 135°09'0 0.1
2016-Aug-15 10:31N 34°10' E 135°09'0 0.0
2016-Aug-15 09:31N 34°10' E 135°09'0 0.0
2016-Aug-15 08:31N 34°10' E 135°09'0 0.0
2016-Aug-15 07:31N 34°10' E 135°09'0 0.0
2016-Aug-15 06:31N 34°10' E 135°09'0 0.0
2016-Aug-15 04:31N 34°10' E 135°09'  
Track history (hours):
 
Tides and Currents Weather Stations Pressure Air Temp Water Temp Dewpoint Dewpoint Depression Visibility Wind Speed Wind Dir Waves Ship Positions

Taiseimaru

Last reported at 2016-Aug-25 04:29 UTC. Time now 2016-Aug-25 09:41 UTC.
Position N 34°04' E 135°00'.

Length 84 m; draft 4.7 m.

Type: Cargo ship. MMSI: 431500568.

Date/timePositionNaut miles runAvg speedWind from/ knotsBaromVisibWave heightAir tempDewpointWater temp
2016-Aug-25 04:29N 34°04' E 135°00'1010.8
2016-Aug-25 03:33N 34°12' E 135°06'2 1.8
2016-Aug-25 02:32N 34°12' E 135°08'1 1.4
2016-Aug-25 01:32N 34°14' E 135°08'0 0.0
2016-Aug-25 00:32N 34°14' E 135°08'0 0.0
2016-Aug-24 23:32N 34°14' E 135°08'0 0.0
2016-Aug-24 22:32N 34°14' E 135°08'0 0.0
2016-Aug-24 21:32N 34°14' E 135°08'0 0.0
2016-Aug-24 20:32N 34°14' E 135°08'0 0.0
2016-Aug-24 19:32N 34°14' E 135°08'0 0.0
2016-Aug-24 18:32N 34°14' E 135°08'2 2.1
2016-Aug-24 17:33N 34°15' E 135°06'0 0.0
2016-Aug-24 16:33N 34°15' E 135°06'0 0.0
2016-Aug-24 15:33N 34°15' E 135°06'0 0.0
2016-Aug-24 14:33N 34°15' E 135°06'0 0.0
2016-Aug-24 12:33N 34°15' E 135°06'7 6.8
2016-Aug-24 11:33N 34°09' E 135°02'12 0.5
2016-Aug-23 08:26N 33°58' E 134°55'1112.1
2016-Aug-23 07:33N 34°07' E 135°01'9 8.6
2016-Aug-23 06:33N 34°14' E 135°08'0 0.0
2016-Aug-23 05:33N 34°14' E 135°08'0 0.0
2016-Aug-23 04:33N 34°14' E 135°08'0 0.0
2016-Aug-23 03:33N 34°14' E 135°08'0 0.0
2016-Aug-23 02:33N 34°14' E 135°08'0 0.0
2016-Aug-23 01:33N 34°14' E 135°08'0 0.0
2016-Aug-23 00:34N 34°14' E 135°08'0 0.0
2016-Aug-22 23:33N 34°14' E 135°08'1 0.6
2016-Aug-22 22:33N 34°14' E 135°07'1 1.2
2016-Aug-22 21:32N 34°15' E 135°06'0 0.0
2016-Aug-22 20:29N 34°15' E 135°06'0 0.0
2016-Aug-22 19:32N 34°15' E 135°06'0 0.0
2016-Aug-22 18:32N 34°15' E 135°06'0 0.0
2016-Aug-22 17:29N 34°15' E 135°06'0 0.1
2016-Aug-22 16:32N 34°15' E 135°06'0 0.0
2016-Aug-22 15:26N 34°15' E 135°06'0 0.0
2016-Aug-22 14:23N 34°15' E 135°06'0 0.0
2016-Aug-22 13:29N 34°15' E 135°06'0 0.0
2016-Aug-22 12:32N 34°15' E 135°06'1 1.2
2016-Aug-22 11:33N 34°14' E 135°05'1111.1
2016-Aug-22 10:32N 34°04' E 134°59'1 0.0
2016-Aug-20 08:23N 34°03' E 134°58'1012.2
2016-Aug-20 07:32N 34°12' E 135°04'4 3.5
2016-Aug-20 06:31N 34°14' E 135°08'0 0.0
2016-Aug-20 05:34N 34°14' E 135°08'0 0.0
2016-Aug-20 04:34N 34°14' E 135°08'0 0.0
2016-Aug-20 03:33N 34°14' E 135°08'0 0.0
2016-Aug-20 02:33N 34°14' E 135°08'0 0.0
2016-Aug-20 01:33N 34°14' E 135°08'0 0.0
2016-Aug-20 00:30N 34°14' E 135°08'0 0.0
2016-Aug-19 23:33N 34°14' E 135°08'0 0.0
2016-Aug-19 22:33N 34°14' E 135°08'3 3.4
2016-Aug-19 21:33N 34°12' E 135°04'  
2016-Aug-17 14:08N 34°02' E 134°57'711.7
2016-Aug-17 13:33N 34°07' E 135°02'6 5.7
2016-Aug-17 12:32N 34°10' E 135°09'0 0.0
2016-Aug-17 11:32N 34°10' E 135°09'0 0.1
2016-Aug-17 10:32N 34°10' E 135°09'0 0.0
2016-Aug-17 08:26N 34°10' E 135°09'0 0.1
2016-Aug-17 07:29N 34°10' E 135°09'0 0.0
2016-Aug-17 06:32N 34°10' E 135°09'0 0.0
2016-Aug-17 04:23N 34°10' E 135°09'0 0.1
2016-Aug-17 03:20N 34°10' E 135°09'0 0.1
2016-Aug-17 02:32N 34°10' E 135°09'0 0.0
2016-Aug-17 01:32N 34°10' E 135°09'0 0.1
2016-Aug-17 00:32N 34°10' E 135°09'0 0.0
2016-Aug-16 23:08N 34°10' E 135°09'0 0.0
2016-Aug-16 22:32N 34°10' E 135°09'0 0.0
2016-Aug-16 21:32N 34°10' E 135°09'0 0.0
2016-Aug-16 20:29N 34°10' E 135°09'0 0.0
2016-Aug-16 19:32N 34°10' E 135°09'0 0.0
2016-Aug-16 18:32N 34°10' E 135°09'0 0.0
2016-Aug-16 17:32N 34°10' E 135°09'0 0.0
2016-Aug-16 16:32N 34°10' E 135°09'0 0.0
2016-Aug-16 15:26N 34°10' E 135°09'0 0.0
2016-Aug-16 14:29N 34°10' E 135°09'0 0.1
2016-Aug-16 13:32N 34°10' E 135°09'0 0.1
2016-Aug-16 12:32N 34°10' E 135°09'0 0.1
2016-Aug-16 11:32N 34°10' E 135°09'0 0.0
2016-Aug-16 10:26N 34°10' E 135°09'0 0.0
2016-Aug-16 09:29N 34°10' E 135°09'0 0.0
2016-Aug-16 08:31N 34°10' E 135°09'0 0.1
2016-Aug-16 07:31N 34°10' E 135°09'0 0.0
2016-Aug-16 04:31N 34°10' E 135°09'0 0.0
2016-Aug-16 03:28N 34°10' E 135°09'0 0.0
2016-Aug-16 01:31N 34°10' E 135°09'0 0.0
2016-Aug-16 00:25N 34°10' E 135°09'0 0.1
2016-Aug-15 23:25N 34°10' E 135°09'0 0.1
2016-Aug-15 22:31N 34°10' E 135°09'0 0.0
2016-Aug-15 21:31N 34°10' E 135°09'0 0.0
2016-Aug-15 20:31N 34°10' E 135°09'0 0.0
2016-Aug-15 19:31N 34°10' E 135°09'0 0.1
2016-Aug-15 18:31N 34°10' E 135°09'0 0.0
2016-Aug-15 17:31N 34°10' E 135°09'0 0.0
2016-Aug-15 16:31N 34°10' E 135°09'0 0.0
2016-Aug-15 15:31N 34°10' E 135°09'0 0.1
2016-Aug-15 14:31N 34°10' E 135°09'0 0.1
2016-Aug-15 13:31N 34°10' E 135°09'0 0.0
2016-Aug-15 12:19N 34°10' E 135°09'0 0.0
2016-Aug-15 11:25N 34°10' E 135°09'0 0.1
2016-Aug-15 10:31N 34°10' E 135°09'0 0.0
2016-Aug-15 09:31N 34°10' E 135°09'0 0.0
2016-Aug-15 08:31N 34°10' E 135°09'0 0.0
2016-Aug-15 07:31N 34°10' E 135°09'0 0.0
2016-Aug-15 06:31N 34°10' E 135°09'0 0.0
2016-Aug-15 04:31N 34°10' E 135°09'  

Dump ship's entire track history